| time (UTC) | temp C | wind direction | speed KPH | gust KPH | rain 1hr cm | rain 24hr cm | rain mn cm | humidity % | barometer mb |
| 20260507001541 | 21 | 246 | 1.6 | 11.3 | 0.00 | 0.00 | 0.00 | 64 | 1017.9 |
| 20260507001003 | 21 | 285 | 3.2 | 11.3 | 0.00 | 0.00 | 0.00 | 64 | 1018.8 |
| 20260507000053 | 21 | 229 | 1.6 | 12.9 | 0.00 | 0.00 | 0.00 | 63 | 1018.0 |
| 20260507000003 | 21 | 297 | 3.2 | 12.9 | 0.00 | 0.00 | 0.00 | 63 | 1019.0 |
| 20260506235003 | 21 | 307 | 3.2 | 12.9 | 0.00 | 0.00 | 0.00 | 64 | 1018.9 |
| 20260506234553 | 21 | 338 | 3.2 | 11.3 | 0.00 | 0.00 | 0.00 | 63 | 1018.0 |
| 20260506234024 | 21 | 312 | 3.2 | 11.3 | 0.00 | 0.00 | 0.00 | 63 | 1018.8 |
| 20260506233045 | 21 | 298 | 3.2 | 12.9 | 0.00 | 0.00 | 0.00 | 63 | 1018.0 |
| 20260506233004 | 21 | 300 | 3.2 | 12.9 | 0.00 | 0.00 | 0.00 | 64 | 1018.9 |
| 20260506232004 | 21 | 303 | 4.8 | 17.7 | 0.00 | 0.00 | 0.00 | 64 | 1018.9 |
| 20260506231545 | 21 | 226 | 4.8 | 17.7 | 0.00 | 0.00 | 0.00 | 63 | 1018.1 |
| 20260506231003 | 22 | 293 | 4.8 | 12.9 | 0.00 | 0.00 | 0.00 | 63 | 1019.0 |
| 20260506230042 | 21 | 259 | 1.6 | 12.9 | 0.00 | 0.00 | 0.00 | 62 | 1018.1 |
| 20260506230003 | 22 | 303 | 3.2 | 12.9 | 0.00 | 0.00 | 0.00 | 63 | 1018.9 |
| 20260506225003 | 22 | 307 | 4.8 | 14.5 | 0.00 | 0.00 | 0.00 | 62 | 1019.1 |
| 20260506224544 | 22 | 330 | 3.2 | 12.9 | 0.00 | 0.00 | 0.00 | 62 | 1018.3 |
| 20260506224003 | 22 | 298 | 4.8 | 14.5 | 0.00 | 0.00 | 0.00 | 62 | 1019.0 |
| 20260506223044 | 22 | 342 | 4.8 | 16.1 | 0.00 | 0.00 | 0.00 | 61 | 1018.3 |
| 20260506223003 | 22 | 305 | 4.8 | 16.1 | 0.00 | 0.00 | 0.00 | 61 | 1019.2 |
| 20260506222004 | 22 | 321 | 3.2 | 9.7 | 0.00 | 0.00 | 0.00 | 60 | 1019.3 |
| 20260506221545 | 22 | 68 | 3.2 | 9.7 | 0.00 | 0.00 | 0.00 | 59 | 1018.5 |
| 20260506221025 | 22 | 267 | 3.2 | 9.7 | 0.00 | 0.00 | 0.00 | 58 | 1019.4 |
| 20260506220045 | 22 | 0 | 1.6 | 9.7 | 0.00 | 0.00 | 0.00 | 57 | 1018.6 |
| 20260506220004 | 22 | 286 | 3.2 | 8.0 | 0.00 | 0.00 | 0.00 | 57 | 1019.4 |
| 20260506215004 | 22 | 280 | 3.2 | 9.7 | 0.00 | 0.00 | 0.00 | 57 | 1019.5 |
| 20260506214558 | 22 | 0 | 1.6 | 8.0 | 0.00 | 0.00 | 0.00 | 56 | 1018.7 |
| 20260506214003 | 22 | 174 | 1.6 | 6.4 | 0.00 | 0.00 | 0.00 | 58 | 1019.6 |
| 20260506213044 | 22 | 0 | 0.0 | 4.8 | 0.00 | 0.00 | 0.00 | 57 | 1018.8 |
| 20260506213004 | 22 | 193 | 1.6 | 4.8 | 0.00 | 0.00 | 0.00 | 59 | 1019.6 |
| 20260506212003 | 22 | 149 | 1.6 | 8.0 | 0.00 | 0.00 | 0.00 | 56 | 1019.8 |
| 20260506211538 | 22 | 163 | 1.6 | 8.0 | 0.00 | 0.00 | 0.00 | 56 | 1019.0 |
| 20260506211003 | 22 | 289 | 1.6 | 8.0 | 0.00 | 0.00 | 0.00 | 59 | 1019.8 |
| 20260506210040 | 21 | 0 | 0.0 | 11.3 | 0.00 | 0.00 | 0.00 | 58 | 1019.1 |
| 20260506210004 | 21 | 268 | 1.6 | 9.7 | 0.00 | 0.00 | 0.00 | 58 | 1019.9 |
| 20260506205025 | 21 | 263 | 3.2 | 11.3 | 0.00 | 0.00 | 0.00 | 58 | 1020.0 |
| 20260506204544 | 21 | 130 | 1.6 | 8.0 | 0.00 | 0.00 | 0.00 | 59 | 1019.1 |
| 20260506204003 | 21 | 317 | 3.2 | 8.0 | 0.00 | 0.00 | 0.00 | 58 | 1020.2 |
| 20260506203047 | 21 | 359 | 0.0 | 6.4 | 0.00 | 0.00 | 0.00 | 61 | 1019.5 |
| 20260506203003 | 21 | 282 | 1.6 | 6.4 | 0.00 | 0.00 | 0.00 | 61 | 1020.4 |
| 20260506202003 | 21 | 285 | 1.6 | 9.7 | 0.00 | 0.00 | 0.00 | 63 | 1020.4 |
| 20260506201544 | 20 | 271 | 3.2 | 9.7 | 0.00 | 0.00 | 0.00 | 60 | 1019.7 |
| 20260506201003 | 20 | 295 | 3.2 | 9.7 | 0.00 | 0.00 | 0.00 | 61 | 1020.5 |
| 20260506200038 | 20 | 0 | 1.6 | 6.4 | 0.00 | 0.00 | 0.00 | 63 | 1019.7 |
| 20260506200024 | 20 | 278 | 1.6 | 6.4 | 0.00 | 0.00 | 0.00 | 64 | 1020.6 |
| 20260506195003 | 20 | 287 | 3.2 | 9.7 | 0.00 | 0.00 | 0.00 | 64 | 1020.8 |
| 20260506194550 | 19 | 0 | 3.2 | 9.7 | 0.00 | 0.00 | 0.00 | 63 | 1020.0 |
| 20260506194003 | 20 | 315 | 3.2 | 8.0 | 0.00 | 0.00 | 0.00 | 65 | 1020.8 |
| 20260506193037 | 19 | 0 | 1.6 | 9.7 | 0.00 | 0.00 | 0.00 | 66 | 1020.1 |
| 20260506193003 | 19 | 267 | 3.2 | 9.7 | 0.00 | 0.00 | 0.00 | 66 | 1020.9 |
| 20260506192003 | 19 | 307 | 1.6 | 6.4 | 0.00 | 0.00 | 0.00 | 68 | 1021.0 |
| 20260506191542 | 18 | 255 | 1.6 | 6.4 | 0.00 | 0.00 | 0.00 | 67 | 1020.4 |
| 20260506191003 | 18 | 258 | 0.0 | 8.0 | 0.00 | 0.00 | 0.00 | 68 | 1021.2 |
| 20260506190044 | 18 | 276 | 3.2 | 9.7 | 0.00 | 0.00 | 0.00 | 69 | 1020.4 |
| 20260506190003 | 18 | 295 | 3.2 | 9.7 | 0.00 | 0.00 | 0.00 | 69 | 1021.3 |
| 20260506185003 | 18 | 324 | 1.6 | 9.7 | 0.00 | 0.00 | 0.00 | 68 | 1021.4 |
| 20260506184545 | 18 | 0 | 0.0 | 8.0 | 0.00 | 0.00 | 0.00 | 71 | 1020.5 |
| 20260506184024 | 18 | 282 | 1.6 | 8.0 | 0.00 | 0.00 | 0.00 | 68 | 1021.4 |
| 20260506183038 | 18 | 270 | 0.0 | 6.4 | 0.00 | 0.00 | 0.00 | 69 | 1020.5 |
| 20260506183004 | 18 | 331 | 1.6 | 6.4 | 0.00 | 0.00 | 0.00 | 70 | 1021.3 |
| 20260506182003 | 18 | 125 | 1.6 | 6.4 | 0.00 | 0.00 | 0.00 | 70 | 1021.4 |
| 20260506181545 | 17 | 0 | 0.0 | 6.4 | 0.00 | 0.00 | 0.00 | 70 | 1020.5 |
| 20260506181003 | 17 | 191 | 1.6 | 4.8 | 0.00 | 0.00 | 0.00 | 72 | 1021.4 |
| 20260506180051 | 17 | 0 | 1.6 | 9.7 | 0.00 | 0.00 | 0.00 | 70 | 1020.5 |
| 20260506180004 | 17 | 193 | 1.6 | 8.0 | 0.00 | 0.00 | 0.00 | 71 | 1021.3 |
| 20260506175024 | 17 | 221 | 1.6 | 9.7 | 0.00 | 0.00 | 0.00 | 72 | 1021.3 |
| 20260506174545 | 17 | 0 | 0.0 | 6.4 | 0.00 | 0.00 | 0.00 | 73 | 1020.5 |
| 20260506174004 | 17 | 118 | 3.2 | 9.7 | 0.00 | 0.00 | 0.00 | 72 | 1021.4 |
| 20260506173048 | 16 | 144 | 0.0 | 6.4 | 0.00 | 0.00 | 0.00 | 73 | 1020.5 |
| 20260506173003 | 16 | 213 | 1.6 | 6.4 | 0.00 | 0.00 | 0.00 | 74 | 1021.4 |
| 20260506172003 | 16 | 130 | 0.0 | 4.8 | 0.00 | 0.00 | 0.00 | 76 | 1021.4 |
| 20260506171553 | 16 | 0 | 0.0 | 0.0 | 0.00 | 0.00 | 0.00 | 77 | 1020.6 |
| 20260506171003 | 15 | 0 | 0.0 | 0.0 | 0.00 | 0.00 | 0.00 | 76 | 1021.5 |
| 20260506170046 | 15 | 0 | 0.0 | 0.0 | 0.00 | 0.00 | 0.00 | 77 | 1020.8 |
| 20260506170003 | 15 | 0 | 0.0 | 0.0 | 0.00 | 0.00 | 0.00 | 77 | 1021.5 |
| 20260506165003 | 15 | 126 | 1.6 | 4.8 | 0.00 | 0.00 | 0.00 | 78 | 1021.5 |
| 20260506164537 | 15 | 139 | 1.6 | 4.8 | 0.00 | 0.00 | 0.00 | 79 | 1020.7 |
| 20260506164024 | 15 | 170 | 1.6 | 3.2 | 0.00 | 0.00 | 0.00 | 81 | 1021.6 |
| 20260506163048 | 14 | 0 | 0.0 | 0.0 | 0.00 | 0.00 | 0.00 | 80 | 1020.6 |
| 20260506163003 | 15 | 0 | 0.0 | 0.0 | 0.00 | 0.00 | 0.00 | 80 | 1021.5 |
| 20260506162003 | 14 | 0 | 0.0 | 0.0 | 0.00 | 0.00 | 0.00 | 82 | 1021.5 |
| 20260506161546 | 14 | 0 | 0.0 | 0.0 | 0.00 | 0.00 | 0.00 | 82 | 1020.7 |
| 20260506161003 | 14 | 0 | 0.0 | 0.0 | 0.00 | 0.00 | 0.00 | 83 | 1021.7 |
| 20260506160045 | 13 | 0 | 0.0 | 0.0 | 0.00 | 0.00 | 0.00 | 84 | 1020.7 |
| 20260506160003 | 14 | 0 | 0.0 | 0.0 | 0.00 | 0.00 | 0.00 | 85 | 1021.5 |
| 20260506155003 | 13 | 0 | 0.0 | 0.0 | 0.00 | 0.00 | 0.00 | 85 | 1021.5 |
| 20260506154607 | 13 | 0 | 0.0 | 0.0 | 0.00 | 0.00 | 0.00 | 85 | 1020.6 |
| 20260506154003 | 13 | 0 | 0.0 | 0.0 | 0.00 | 0.00 | 0.00 | 85 | 1021.5 |
| 20260506153038 | 13 | 0 | 0.0 | 0.0 | 0.00 | 0.00 | 0.00 | 86 | 1020.6 |
| 20260506153003 | 13 | 0 | 0.0 | 0.0 | 0.00 | 0.00 | 0.00 | 86 | 1021.5 |
| 20260506152003 | 13 | 0 | 0.0 | 0.0 | 0.00 | 0.00 | 0.00 | 87 | 1021.4 |
| 20260506151545 | 12 | 0 | 0.0 | 0.0 | 0.00 | 0.00 | 0.00 | 87 | 1020.6 |
| 20260506151003 | 13 | 0 | 0.0 | 0.0 | 0.00 | 0.00 | 0.00 | 88 | 1021.4 |
| 20260506150038 | 12 | 0 | 0.0 | 0.0 | 0.00 | 0.00 | 0.00 | 88 | 1020.6 |
| 20260506150003 | 13 | 0 | 0.0 | 0.0 | 0.00 | 0.00 | 0.00 | 89 | 1021.4 |
| 20260506145024 | 12 | 0 | 0.0 | 0.0 | 0.00 | 0.00 | 0.00 | 90 | 1021.3 |
| 20260506144555 | 12 | 0 | 0.0 | 0.0 | 0.00 | 0.00 | 0.00 | 89 | 1020.5 |
| 20260506144024 | 12 | 0 | 0.0 | 0.0 | 0.00 | 0.00 | 0.00 | 90 | 1021.3 |
| 20260506143041 | 12 | 0 | 0.0 | 0.0 | 0.00 | 0.00 | 0.00 | 90 | 1020.6 |
| 20260506143003 | 12 | 0 | 0.0 | 0.0 | 0.00 | 0.00 | 0.00 | 90 | 1021.3 |
| 20260506142024 | 12 | 0 | 0.0 | 0.0 | 0.00 | 0.00 | 0.00 | 91 | 1021.3 |
| 20260506141542 | 12 | 0 | 0.0 | 0.0 | 0.00 | 0.00 | 0.00 | 91 | 1020.4 |
| 20260506141003 | 12 | 0 | 0.0 | 0.0 | 0.00 | 0.00 | 0.00 | 91 | 1021.2 |
| 20260506140054 | 11 | 0 | 0.0 | 0.0 | 0.00 | 0.00 | 0.00 | 91 | 1020.2 |
| 20260506140003 | 12 | 0 | 0.0 | 0.0 | 0.00 | 0.00 | 0.00 | 91 | 1021.1 |
| 20260506135003 | 11 | 0 | 0.0 | 0.0 | 0.00 | 0.00 | 0.00 | 92 | 1021.0 |
| 20260506134544 | 11 | 0 | 0.0 | 0.0 | 0.00 | 0.00 | 0.00 | 91 | 1020.0 |
| 20260506134003 | 11 | 0 | 0.0 | 0.0 | 0.00 | 0.00 | 0.00 | 92 | 1020.8 |
| 20260506133049 | 11 | 0 | 0.0 | 0.0 | 0.00 | 0.00 | 0.00 | 92 | 1019.8 |
| 20260506133003 | 11 | 0 | 0.0 | 0.0 | 0.00 | 0.00 | 0.00 | 92 | 1020.7 |
| 20260506132003 | 11 | 0 | 0.0 | 0.0 | 0.00 | 0.00 | 0.00 | 92 | 1020.6 |
| 20260506131543 | 11 | 0 | 0.0 | 0.0 | 0.00 | 0.00 | 0.00 | 92 | 1019.7 |
| 20260506131003 | 11 | 0 | 0.0 | 0.0 | 0.00 | 0.00 | 0.00 | 93 | 1020.6 |
| 20260506130046 | 11 | 0 | 0.0 | 0.0 | 0.00 | 0.00 | 0.00 | 92 | 1019.8 |
| 20260506130004 | 11 | 0 | 0.0 | 0.0 | 0.00 | 0.00 | 0.00 | 93 | 1020.5 |
| 20260506125003 | 11 | 0 | 0.0 | 0.0 | 0.00 | 0.00 | 0.00 | 93 | 1020.5 |
| 20260506124545 | 10 | 0 | 0.0 | 0.0 | 0.00 | 0.00 | 0.00 | 92 | 1019.6 |
| 20260506124003 | 10 | 0 | 0.0 | 0.0 | 0.00 | 0.00 | 0.00 | 92 | 1020.5 |
| 20260506123041 | 10 | 0 | 0.0 | 0.0 | 0.00 | 0.00 | 0.00 | 92 | 1019.6 |
| 20260506123003 | 10 | 0 | 0.0 | 0.0 | 0.00 | 0.00 | 0.00 | 92 | 1020.5 |
| 20260506122003 | 10 | 0 | 0.0 | 0.0 | 0.00 | 0.00 | 0.00 | 92 | 1020.4 |
| 20260506121538 | 10 | 0 | 0.0 | 0.0 | 0.00 | 0.00 | 0.00 | 92 | 1019.6 |
| 20260506121003 | 10 | 0 | 0.0 | 0.0 | 0.00 | 0.00 | 0.00 | 92 | 1020.4 |
| 20260506120049 | 9 | 0 | 0.0 | 0.0 | 0.00 | 0.00 | 0.00 | 91 | 1019.5 |
| 20260506120004 | 10 | 0 | 0.0 | 0.0 | 0.00 | 0.00 | 0.00 | 91 | 1020.3 |
| 20260506115024 | 10 | 0 | 0.0 | 0.0 | 0.00 | 0.00 | 0.00 | 91 | 1020.2 |
| 20260506114548 | 10 | 0 | 0.0 | 0.0 | 0.00 | 0.03 | 0.00 | 91 | 1019.5 |
| 20260506114003 | 10 | 0 | 0.0 | 0.0 | 0.00 | 0.03 | 0.00 | 91 | 1020.2 |
| 20260506113049 | 10 | 0 | 0.0 | 0.0 | 0.00 | 0.03 | 0.00 | 90 | 1019.3 |
| 20260506113003 | 10 | 0 | 0.0 | 0.0 | 0.00 | 0.03 | 0.00 | 90 | 1020.2 |
| 20260506112024 | 10 | 0 | 0.0 | 0.0 | 0.00 | 0.03 | 0.00 | 90 | 1020.2 |
| 20260506111543 | 10 | 0 | 0.0 | 0.0 | 0.00 | 0.03 | 0.00 | 90 | 1019.4 |
| 20260506111003 | 10 | 0 | 0.0 | 0.0 | 0.00 | 0.03 | 0.00 | 90 | 1020.2 |
| 20260506110039 | 10 | 0 | 0.0 | 0.0 | 0.00 | 0.03 | 0.00 | 89 | 1019.2 |
| 20260506110003 | 10 | 0 | 0.0 | 0.0 | 0.00 | 0.03 | 0.00 | 90 | 1020.0 |
| 20260506105003 | 11 | 0 | 0.0 | 0.0 | 0.00 | 0.03 | 0.00 | 89 | 1019.9 |
| 20260506104545 | 10 | 0 | 0.0 | 0.0 | 0.00 | 0.05 | 0.00 | 88 | 1019.1 |
| 20260506104003 | 11 | 0 | 0.0 | 0.0 | 0.00 | 0.03 | 0.00 | 89 | 1019.8 |
| 20260506103044 | 11 | 0 | 0.0 | 0.0 | 0.00 | 0.05 | 0.00 | 88 | 1019.1 |
| 20260506103003 | 11 | 0 | 0.0 | 0.0 | 0.00 | 0.03 | 0.00 | 88 | 1019.9 |
| 20260506102003 | 11 | 0 | 0.0 | 0.0 | 0.00 | 0.05 | 0.00 | 88 | 1019.8 |
| 20260506101550 | 11 | 0 | 0.0 | 0.0 | 0.00 | 0.05 | 0.00 | 87 | 1018.9 |
| 20260506101003 | 12 | 0 | 0.0 | 0.0 | 0.00 | 0.05 | 0.00 | 87 | 1019.8 |
| 20260506100043 | 12 | 0 | 0.0 | 0.0 | 0.00 | 0.05 | 0.00 | 87 | 1019.0 |
| 20260506100024 | 12 | 0 | 0.0 | 0.0 | 0.00 | 0.05 | 0.00 | 87 | 1019.8 |
| 20260506095024 | 12 | 0 | 0.0 | 0.0 | 0.00 | 0.05 | 0.00 | 87 | 1019.8 |
| 20260506094544 | 12 | 0 | 0.0 | 0.0 | 0.00 | 0.05 | 0.00 | 86 | 1019.0 |
| 20260506094003 | 12 | 0 | 0.0 | 0.0 | 0.00 | 0.05 | 0.00 | 87 | 1019.8 |
| 20260506093041 | 12 | 0 | 0.0 | 0.0 | 0.00 | 0.05 | 0.00 | 86 | 1019.0 |
| 20260506093003 | 13 | 0 | 0.0 | 0.0 | 0.00 | 0.05 | 0.00 | 86 | 1019.8 |
| 20260506092024 | 13 | 0 | 0.0 | 0.0 | 0.00 | 0.05 | 0.00 | 86 | 1019.7 |
| 20260506091537 | 12 | 0 | 0.0 | 0.0 | 0.00 | 0.05 | 0.00 | 86 | 1018.8 |
| 20260506091003 | 13 | 0 | 0.0 | 0.0 | 0.00 | 0.05 | 0.00 | 86 | 1019.7 |
| 20260506090043 | 12 | 0 | 0.0 | 0.0 | 0.00 | 0.05 | 0.00 | 86 | 1018.8 |
| 20260506090003 | 13 | 0 | 0.0 | 0.0 | 0.00 | 0.05 | 0.00 | 86 | 1019.7 |
| 20260506085003 | 13 | 0 | 0.0 | 0.0 | 0.00 | 0.05 | 0.00 | 86 | 1019.7 |
| 20260506084545 | 12 | 0 | 0.0 | 0.0 | 0.00 | 0.05 | 0.00 | 86 | 1018.8 |
| 20260506084003 | 13 | 0 | 0.0 | 0.0 | 0.00 | 0.05 | 0.00 | 86 | 1019.7 |
| 20260506083044 | 12 | 0 | 0.0 | 0.0 | 0.00 | 0.05 | 0.00 | 86 | 1018.9 |
| 20260506083025 | 13 | 0 | 0.0 | 0.0 | 0.00 | 0.05 | 0.00 | 86 | 1019.7 |
| 20260506082004 | 13 | 0 | 0.0 | 0.0 | 0.00 | 0.05 | 0.00 | 86 | 1019.8 |
| 20260506081543 | 12 | 0 | 0.0 | 0.0 | 0.00 | 0.05 | 0.00 | 85 | 1018.9 |
| 20260506081003 | 13 | 0 | 0.0 | 0.0 | 0.00 | 0.05 | 0.00 | 86 | 1019.7 |
| 20260506073040 | 12 | 0 | 0.0 | 0.0 | 0.00 | 0.05 | 0.00 | 84 | 1018.7 |
| 20260506073003 | 13 | 0 | 0.0 | 0.0 | 0.00 | 0.05 | 0.00 | 85 | 1019.5 |
| 20260506072003 | 13 | 0 | 0.0 | 0.0 | 0.00 | 0.05 | 0.00 | 84 | 1019.6 |
| 20260506071544 | 12 | 0 | 0.0 | 0.0 | 0.00 | 0.05 | 0.00 | 84 | 1018.6 |
| 20260506071003 | 13 | 0 | 0.0 | 0.0 | 0.00 | 0.05 | 0.00 | 84 | 1019.4 |
| 20260506062003 | 13 | 0 | 0.0 | 0.0 | 0.00 | 0.05 | 0.05 | 83 | 1019.2 |
| 20260506061537 | 12 | 0 | 0.0 | 0.0 | 0.00 | 0.05 | 0.05 | 82 | 1018.2 |
| 20260506061003 | 13 | 0 | 0.0 | 0.0 | 0.00 | 0.05 | 0.05 | 83 | 1019.1 |
| 20260506051003 | 13 | 0 | 0.0 | 0.0 | 0.00 | 0.05 | 0.05 | 82 | 1018.7 |
| 20260506045003 | 13 | 0 | 0.0 | 0.0 | 0.00 | 0.05 | 0.05 | 82 | 1018.5 |
| 20260506044539 | 13 | 0 | 0.0 | 0.0 | 0.00 | 0.05 | 0.05 | 81 | 1017.5 |
| 20260506044003 | 13 | 0 | 0.0 | 0.0 | 0.00 | 0.05 | 0.05 | 82 | 1018.3 |
| 20260506043043 | 13 | 0 | 0.0 | 0.0 | 0.00 | 0.05 | 0.05 | 81 | 1017.5 |
| 20260506043003 | 13 | 0 | 0.0 | 0.0 | 0.00 | 0.05 | 0.05 | 82 | 1018.3 |
| 20260506042003 | 13 | 0 | 0.0 | 0.0 | 0.00 | 0.05 | 0.05 | 81 | 1018.2 |
| 20260506041545 | 13 | 0 | 0.0 | 0.0 | 0.00 | 0.05 | 0.05 | 81 | 1017.4 |
| 20260506041003 | 13 | 0 | 0.0 | 0.0 | 0.00 | 0.05 | 0.05 | 81 | 1018.1 |
| 20260506040047 | 13 | 0 | 0.0 | 0.0 | 0.00 | 0.05 | 0.05 | 80 | 1017.1 |
| 20260506040003 | 13 | 0 | 0.0 | 0.0 | 0.00 | 0.05 | 0.05 | 81 | 1017.9 |
| 20260506035004 | 13 | 343 | 1.6 | 8.0 | 0.00 | 0.05 | 0.05 | 80 | 1017.9 |
| 20260506034539 | 13 | 0 | 0.0 | 9.7 | 0.00 | 0.05 | 0.05 | 80 | 1017.0 |
| 20260506034003 | 13 | 352 | 1.6 | 9.7 | 0.00 | 0.05 | 0.05 | 80 | 1017.7 |
| 20260506033041 | 13 | 0 | 3.2 | 9.7 | 0.00 | 0.05 | 0.05 | 79 | 1016.6 |
| 20260506033004 | 13 | 340 | 3.2 | 9.7 | 0.00 | 0.05 | 0.05 | 80 | 1017.5 |
| 20260506032003 | 13 | 336 | 0.0 | 6.4 | 0.00 | 0.05 | 0.05 | 79 | 1017.5 |
| 20260506031544 | 13 | 0 | 1.6 | 6.4 | 0.00 | 0.05 | 0.05 | 79 | 1016.5 |
| 20260506031003 | 13 | 297 | 0.0 | 3.2 | 0.00 | 0.05 | 0.05 | 79 | 1017.4 |
| 20260506030044 | 13 | 0 | 1.6 | 6.4 | 0.00 | 0.05 | 0.05 | 79 | 1016.4 |
| 20260506030003 | 14 | 320 | 1.6 | 6.4 | 0.00 | 0.05 | 0.05 | 79 | 1017.3 |
| 20260506025003 | 14 | 315 | 3.2 | 8.0 | 0.00 | 0.05 | 0.05 | 78 | 1017.1 |
| 20260506024545 | 14 | 0 | 1.6 | 8.0 | 0.00 | 0.05 | 0.05 | 77 | 1016.2 |
| 20260506024003 | 15 | 329 | 3.2 | 8.0 | 0.00 | 0.05 | 0.05 | 77 | 1017.0 |
| 20260506023055 | 15 | 329 | 3.2 | 9.7 | 0.00 | 0.05 | 0.05 | 75 | 1016.0 |
| 20260506023003 | 15 | 325 | 3.2 | 8.0 | 0.00 | 0.05 | 0.05 | 76 | 1016.8 |
| 20260506022003 | 15 | 330 | 4.8 | 11.3 | 0.00 | 0.05 | 0.05 | 76 | 1016.8 |
| 20260506021550 | 15 | 289 | 4.8 | 14.5 | 0.00 | 0.05 | 0.05 | 75 | 1016.0 |
| 20260506021003 | 15 | 346 | 6.4 | 14.5 | 0.00 | 0.05 | 0.05 | 74 | 1016.8 |
| 20260506020047 | 15 | 336 | 3.2 | 12.9 | 0.00 | 0.05 | 0.05 | 74 | 1015.9 |
| 20260506020024 | 15 | 341 | 4.8 | 12.9 | 0.00 | 0.05 | 0.05 | 75 | 1016.8 |
| 20260506015003 | 15 | 330 | 4.8 | 9.7 | 0.00 | 0.05 | 0.05 | 74 | 1016.8 |
| 20260506014545 | 15 | 319 | 3.2 | 9.7 | 0.00 | 0.05 | 0.05 | 73 | 1015.9 |
| 20260506014003 | 16 | 336 | 4.8 | 11.3 | 0.00 | 0.05 | 0.05 | 74 | 1016.8 |
| 20260506013043 | 15 | 325 | 3.2 | 9.7 | 0.00 | 0.05 | 0.05 | 72 | 1016.0 |
| 20260506013003 | 16 | 324 | 4.8 | 9.7 | 0.00 | 0.05 | 0.05 | 73 | 1016.9 |
| 20260506012003 | 16 | 332 | 4.8 | 12.9 | 0.00 | 0.05 | 0.05 | 71 | 1016.7 |
| 20260506011545 | 16 | 335 | 3.2 | 11.3 | 0.00 | 0.05 | 0.05 | 71 | 1015.8 |
| 20260506011003 | 16 | 340 | 4.8 | 11.3 | 0.00 | 0.05 | 0.05 | 71 | 1016.7 |
| 20260506010051 | 16 | 332 | 3.2 | 19.3 | 0.00 | 0.05 | 0.05 | 70 | 1015.8 |
| 20260506010003 | 16 | 330 | 4.8 | 19.3 | 0.00 | 0.05 | 0.05 | 70 | 1016.7 |
| 20260506005003 | 16 | 331 | 4.8 | 14.5 | 0.00 | 0.05 | 0.05 | 70 | 1016.7 |
| 20260506004546 | 16 | 352 | 3.2 | 16.1 | 0.00 | 0.05 | 0.05 | 70 | 1015.8 |
| 20260506004024 | 16 | 330 | 4.8 | 16.1 | 0.00 | 0.05 | 0.05 | 71 | 1016.6 |
| 20260506003037 | 16 | 309 | 6.4 | 17.7 | 0.00 | 0.05 | 0.05 | 71 | 1015.7 |
| 20260506003003 | 16 | 339 | 6.4 | 17.7 | 0.00 | 0.05 | 0.05 | 72 | 1016.6 |
| 20260506002003 | 16 | 319 | 4.8 | 17.7 | 0.00 | 0.05 | 0.05 | 70 | 1016.5 |